sensor_id;sensor_type;location;lat;lon;timestamp;P1;durP1;ratioP1;P2;durP2;ratioP2
31083;SDS011;36333;51.382;0.016;2022-09-09T00:02:04;34.63;;;6.78;;
31083;SDS011;36333;51.382;0.016;2022-09-09T00:07:41;31.52;;;5.97;;
31083;SDS011;36333;51.382;0.016;2022-09-09T00:13:24;34.95;;;5.95;;
31083;SDS011;36333;51.382;0.016;2022-09-09T00:16:17;27.75;;;5.78;;
31083;SDS011;36333;51.382;0.016;2022-09-09T00:19:08;34.97;;;6.30;;
31083;SDS011;36333;51.382;0.016;2022-09-09T00:22:04;36.85;;;6.78;;
31083;SDS011;36333;51.382;0.016;2022-09-09T00:27:16;30.90;;;6.60;;
31083;SDS011;36333;51.382;0.016;2022-09-09T00:29:57;30.38;;;7.80;;
31083;SDS011;36333;51.382;0.016;2022-09-09T00:32:31;38.83;;;7.60;;
31083;SDS011;36333;51.382;0.016;2022-09-09T00:35:04;41.97;;;8.07;;
31083;SDS011;36333;51.382;0.016;2022-09-09T00:37:42;37.50;;;7.88;;
31083;SDS011;36333;51.382;0.016;2022-09-09T00:43:21;33.38;;;7.88;;
31083;SDS011;36333;51.382;0.016;2022-09-09T00:46:23;34.13;;;7.78;;
31083;SDS011;36333;51.382;0.016;2022-09-09T00:52:08;45.03;;;7.95;;
31083;SDS011;36333;51.382;0.016;2022-09-09T00:54:48;35.85;;;7.70;;
31083;SDS011;36333;51.382;0.016;2022-09-09T00:57:34;39.95;;;7.50;;
31083;SDS011;36333;51.382;0.016;2022-09-09T01:03:08;43.10;;;9.48;;
31083;SDS011;36333;51.382;0.016;2022-09-09T01:05:50;38.05;;;9.27;;
31083;SDS011;36333;51.382;0.016;2022-09-09T01:08:35;38.42;;;10.25;;
31083;SDS011;36333;51.382;0.016;2022-09-09T01:11:26;38.72;;;11.25;;
31083;SDS011;36333;51.382;0.016;2022-09-09T01:17:03;40.17;;;10.77;;
31083;SDS011;36333;51.382;0.016;2022-09-09T01:25:11;43.53;;;10.85;;
31083;SDS011;36333;51.382;0.016;2022-09-09T01:27:55;37.42;;;9.02;;
31083;SDS011;36333;51.382;0.016;2022-09-09T01:30:30;43.65;;;10.88;;
31083;SDS011;36333;51.382;0.016;2022-09-09T01:33:00;37.95;;;11.25;;
31083;SDS011;36333;51.382;0.016;2022-09-09T01:35:36;39.88;;;10.77;;
31083;SDS011;36333;51.382;0.016;2022-09-09T01:38:11;40.78;;;11.27;;
31083;SDS011;36333;51.382;0.016;2022-09-09T01:40:40;43.17;;;10.55;;
31083;SDS011;36333;51.382;0.016;2022-09-09T01:43:08;37.78;;;10.38;;
31083;SDS011;36333;51.382;0.016;2022-09-09T01:45:37;53.45;;;10.73;;
31083;SDS011;36333;51.382;0.016;2022-09-09T01:48:06;38.42;;;9.68;;
31083;SDS011;36333;51.382;0.016;2022-09-09T01:50:43;27.45;;;8.95;;
31083;SDS011;36333;51.382;0.016;2022-09-09T01:55:41;37.13;;;10.75;;
31083;SDS011;36333;51.382;0.016;2022-09-09T01:58:28;41.08;;;11.48;;
31083;SDS011;36333;51.382;0.016;2022-09-09T02:01:27;37.65;;;11.10;;
31083;SDS011;36333;51.382;0.016;2022-09-09T02:04:11;35.17;;;10.07;;
31083;SDS011;36333;51.382;0.016;2022-09-09T02:10:11;45.70;;;13.10;;
31083;SDS011;36333;51.382;0.016;2022-09-09T02:13:16;33.75;;;8.73;;
31083;SDS011;36333;51.382;0.016;2022-09-09T02:15:56;41.03;;;9.95;;
31083;SDS011;36333;51.382;0.016;2022-09-09T02:18:37;35.28;;;9.93;;
31083;SDS011;36333;51.382;0.016;2022-09-09T02:21:23;30.73;;;7.60;;
31083;SDS011;36333;51.382;0.016;2022-09-09T02:23:52;36.00;;;7.10;;
31083;SDS011;36333;51.382;0.016;2022-09-09T02:26:20;32.63;;;7.88;;
31083;SDS011;36333;51.382;0.016;2022-09-09T02:28:56;29.65;;;6.78;;
31083;SDS011;36333;51.382;0.016;2022-09-09T02:31:26;36.03;;;6.75;;
31083;SDS011;36333;51.382;0.016;2022-09-09T02:34:00;30.90;;;6.45;;
31083;SDS011;36333;51.382;0.016;2022-09-09T02:36:29;27.33;;;6.45;;
31083;SDS011;36333;51.382;0.016;2022-09-09T02:39:00;38.67;;;6.85;;
31083;SDS011;36333;51.382;0.016;2022-09-09T02:41:34;33.60;;;6.57;;
31083;SDS011;36333;51.382;0.016;2022-09-09T02:44:05;38.42;;;8.02;;
31083;SDS011;36333;51.382;0.016;2022-09-09T02:54:31;26.55;;;6.80;;
31083;SDS011;36333;51.382;0.016;2022-09-09T02:59:49;35.33;;;7.50;;
31083;SDS011;36333;51.382;0.016;2022-09-09T03:02:19;35.28;;;8.20;;
31083;SDS011;36333;51.382;0.016;2022-09-09T03:04:53;39.95;;;8.77;;
31083;SDS011;36333;51.382;0.016;2022-09-09T03:07:21;35.65;;;9.07;;
31083;SDS011;36333;51.382;0.016;2022-09-09T03:09:50;45.13;;;9.00;;
31083;SDS011;36333;51.382;0.016;2022-09-09T03:12:19;44.95;;;10.05;;
31083;SDS011;36333;51.382;0.016;2022-09-09T03:14:48;48.13;;;9.68;;
31083;SDS011;36333;51.382;0.016;2022-09-09T03:17:15;36.47;;;8.98;;
31083;SDS011;36333;51.382;0.016;2022-09-09T03:19:50;35.75;;;9.10;;
31083;SDS011;36333;51.382;0.016;2022-09-09T03:22:19;34.15;;;9.43;;
31083;SDS011;36333;51.382;0.016;2022-09-09T03:24:48;50.80;;;9.55;;
31083;SDS011;36333;51.382;0.016;2022-09-09T03:27:16;33.47;;;8.95;;
31083;SDS011;36333;51.382;0.016;2022-09-09T03:29:45;42.83;;;9.85;;
31083;SDS011;36333;51.382;0.016;2022-09-09T03:32:19;43.47;;;9.73;;
31083;SDS011;36333;51.382;0.016;2022-09-09T03:34:49;33.75;;;10.45;;
31083;SDS011;36333;51.382;0.016;2022-09-09T03:37:18;33.10;;;9.32;;
31083;SDS011;36333;51.382;0.016;2022-09-09T03:39:48;26.52;;;8.20;;
31083;SDS011;36333;51.382;0.016;2022-09-09T03:42:18;32.72;;;8.95;;
31083;SDS011;36333;51.382;0.016;2022-09-09T03:44:48;36.65;;;8.82;;
31083;SDS011;36333;51.382;0.016;2022-09-09T03:47:20;33.22;;;9.57;;
31083;SDS011;36333;51.382;0.016;2022-09-09T03:49:55;34.63;;;9.98;;
31083;SDS011;36333;51.382;0.016;2022-09-09T03:52:23;33.80;;;9.35;;
31083;SDS011;36333;51.382;0.016;2022-09-09T03:54:53;40.50;;;9.93;;
31083;SDS011;36333;51.382;0.016;2022-09-09T03:57:20;33.17;;;9.35;;
31083;SDS011;36333;51.382;0.016;2022-09-09T04:02:16;30.65;;;8.93;;
31083;SDS011;36333;51.382;0.016;2022-09-09T04:04:44;33.95;;;8.93;;
31083;SDS011;36333;51.382;0.016;2022-09-09T04:07:11;33.58;;;10.73;;
31083;SDS011;36333;51.382;0.016;2022-09-09T04:09:39;44.28;;;10.43;;
31083;SDS011;36333;51.382;0.016;2022-09-09T04:14:36;34.25;;;9.85;;
31083;SDS011;36333;51.382;0.016;2022-09-09T04:17:05;32.38;;;10.20;;
31083;SDS011;36333;51.382;0.016;2022-09-09T04:19:33;37.58;;;11.10;;
31083;SDS011;36333;51.382;0.016;2022-09-09T04:22:05;37.20;;;10.23;;
31083;SDS011;36333;51.382;0.016;2022-09-09T04:24:32;35.65;;;11.05;;
31083;SDS011;36333;51.382;0.016;2022-09-09T04:27:01;42.95;;;11.25;;
31083;SDS011;36333;51.382;0.016;2022-09-09T04:29:30;37.67;;;10.45;;
31083;SDS011;36333;51.382;0.016;2022-09-09T04:31:58;44.50;;;11.95;;
31083;SDS011;36333;51.382;0.016;2022-09-09T04:34:26;38.40;;;10.77;;
31083;SDS011;36333;51.382;0.016;2022-09-09T04:36:54;29.50;;;11.02;;
31083;SDS011;36333;51.382;0.016;2022-09-09T04:39:22;39.10;;;11.82;;
31083;SDS011;36333;51.382;0.016;2022-09-09T04:41:51;44.03;;;12.43;;
31083;SDS011;36333;51.382;0.016;2022-09-09T04:44:18;35.55;;;12.52;;
31083;SDS011;36333;51.382;0.016;2022-09-09T04:46:46;50.88;;;12.40;;
31083;SDS011;36333;51.382;0.016;2022-09-09T04:49:14;32.28;;;12.07;;
31083;SDS011;36333;51.382;0.016;2022-09-09T04:51:43;37.95;;;12.25;;
31083;SDS011;36333;51.382;0.016;2022-09-09T04:54:11;40.30;;;12.85;;
31083;SDS011;36333;51.382;0.016;2022-09-09T04:56:42;46.67;;;13.40;;
31083;SDS011;36333;51.382;0.016;2022-09-09T04:59:11;37.97;;;12.85;;
31083;SDS011;36333;51.382;0.016;2022-09-09T05:01:45;39.60;;;12.25;;
31083;SDS011;36333;51.382;0.016;2022-09-09T05:04:13;31.83;;;11.43;;
31083;SDS011;36333;51.382;0.016;2022-09-09T05:06:42;36.80;;;11.73;;
31083;SDS011;36333;51.382;0.016;2022-09-09T05:09:11;36.55;;;11.30;;
31083;SDS011;36333;51.382;0.016;2022-09-09T05:11:39;29.80;;;11.05;;
31083;SDS011;36333;51.382;0.016;2022-09-09T05:14:13;35.88;;;12.27;;
31083;SDS011;36333;51.382;0.016;2022-09-09T05:16:41;30.75;;;11.30;;
31083;SDS011;36333;51.382;0.016;2022-09-09T05:19:11;36.90;;;11.90;;
31083;SDS011;36333;51.382;0.016;2022-09-09T05:21:48;32.17;;;11.80;;
31083;SDS011;36333;51.382;0.016;2022-09-09T05:24:21;47.47;;;13.57;;
31083;SDS011;36333;51.382;0.016;2022-09-09T05:26:53;31.20;;;13.00;;
31083;SDS011;36333;51.382;0.016;2022-09-09T05:29:20;44.17;;;14.18;;
31083;SDS011;36333;51.382;0.016;2022-09-09T05:31:48;39.00;;;13.20;;
31083;SDS011;36333;51.382;0.016;2022-09-09T05:34:19;37.03;;;14.00;;
31083;SDS011;36333;51.382;0.016;2022-09-09T05:36:48;43.42;;;15.10;;
31083;SDS011;36333;51.382;0.016;2022-09-09T05:39:16;47.80;;;17.20;;
31083;SDS011;36333;51.382;0.016;2022-09-09T05:41:44;44.13;;;16.02;;
31083;SDS011;36333;51.382;0.016;2022-09-09T05:44:11;53.05;;;18.30;;
31083;SDS011;36333;51.382;0.016;2022-09-09T05:46:40;52.28;;;18.35;;
31083;SDS011;36333;51.382;0.016;2022-09-09T05:49:08;36.40;;;18.05;;
31083;SDS011;36333;51.382;0.016;2022-09-09T05:51:36;54.92;;;21.05;;
31083;SDS011;36333;51.382;0.016;2022-09-09T05:54:09;55.35;;;20.52;;
31083;SDS011;36333;51.382;0.016;2022-09-09T05:56:42;44.00;;;18.65;;
31083;SDS011;36333;51.382;0.016;2022-09-09T05:59:15;45.95;;;17.83;;
31083;SDS011;36333;51.382;0.016;2022-09-09T06:01:43;47.33;;;18.13;;
31083;SDS011;36333;51.382;0.016;2022-09-09T06:04:27;50.63;;;18.60;;
31083;SDS011;36333;51.382;0.016;2022-09-09T06:06:55;42.15;;;16.33;;
31083;SDS011;36333;51.382;0.016;2022-09-09T06:09:23;42.08;;;15.82;;
31083;SDS011;36333;51.382;0.016;2022-09-09T06:11:51;48.80;;;17.00;;
31083;SDS011;36333;51.382;0.016;2022-09-09T06:14:20;40.42;;;15.95;;
31083;SDS011;36333;51.382;0.016;2022-09-09T06:16:51;46.30;;;16.23;;
31083;SDS011;36333;51.382;0.016;2022-09-09T06:19:23;46.92;;;17.42;;
31083;SDS011;36333;51.382;0.016;2022-09-09T06:21:56;39.10;;;16.55;;
31083;SDS011;36333;51.382;0.016;2022-09-09T06:24:34;43.00;;;18.42;;
31083;SDS011;36333;51.382;0.016;2022-09-09T06:27:05;37.35;;;16.75;;
31083;SDS011;36333;51.382;0.016;2022-09-09T06:29:50;55.38;;;18.83;;
31083;SDS011;36333;51.382;0.016;2022-09-09T06:32:18;50.72;;;17.23;;
31083;SDS011;36333;51.382;0.016;2022-09-09T06:34:46;43.20;;;17.42;;
31083;SDS011;36333;51.382;0.016;2022-09-09T06:37:16;44.40;;;17.23;;
31083;SDS011;36333;51.382;0.016;2022-09-09T06:39:48;41.30;;;15.70;;
31083;SDS011;36333;51.382;0.016;2022-09-09T06:42:15;41.17;;;17.50;;
31083;SDS011;36333;51.382;0.016;2022-09-09T06:44:51;39.55;;;15.52;;
31083;SDS011;36333;51.382;0.016;2022-09-09T06:47:31;44.67;;;16.10;;
31083;SDS011;36333;51.382;0.016;2022-09-09T06:50:00;37.65;;;14.98;;
31083;SDS011;36333;51.382;0.016;2022-09-09T06:52:31;37.00;;;17.70;;
31083;SDS011;36333;51.382;0.016;2022-09-09T06:55:00;36.22;;;14.30;;
31083;SDS011;36333;51.382;0.016;2022-09-09T06:57:27;32.80;;;13.40;;
31083;SDS011;36333;51.382;0.016;2022-09-09T07:00:17;31.85;;;12.07;;
31083;SDS011;36333;51.382;0.016;2022-09-09T07:02:48;23.23;;;10.95;;
31083;SDS011;36333;51.382;0.016;2022-09-09T07:05:25;27.40;;;11.35;;
31083;SDS011;36333;51.382;0.016;2022-09-09T07:07:55;28.17;;;11.50;;
31083;SDS011;36333;51.382;0.016;2022-09-09T07:10:36;28.77;;;11.07;;
31083;SDS011;36333;51.382;0.016;2022-09-09T07:13:05;28.35;;;11.02;;
31083;SDS011;36333;51.382;0.016;2022-09-09T07:20:53;34.08;;;10.98;;
31083;SDS011;36333;51.382;0.016;2022-09-09T07:23:23;20.63;;;9.68;;
31083;SDS011;36333;51.382;0.016;2022-09-09T07:25:52;17.95;;;9.75;;
31083;SDS011;36333;51.382;0.016;2022-09-09T07:28:21;21.38;;;9.32;;
31083;SDS011;36333;51.382;0.016;2022-09-09T07:30:53;21.77;;;9.40;;
31083;SDS011;36333;51.382;0.016;2022-09-09T07:33:23;21.42;;;8.63;;
31083;SDS011;36333;51.382;0.016;2022-09-09T07:35:53;21.73;;;9.35;;
31083;SDS011;36333;51.382;0.016;2022-09-09T07:38:21;20.98;;;9.10;;
31083;SDS011;36333;51.382;0.016;2022-09-09T07:40:52;28.05;;;10.25;;
31083;SDS011;36333;51.382;0.016;2022-09-09T07:43:25;23.50;;;9.32;;
31083;SDS011;36333;51.382;0.016;2022-09-09T07:45:59;19.63;;;8.82;;
31083;SDS011;36333;51.382;0.016;2022-09-09T07:48:28;20.13;;;8.35;;
31083;SDS011;36333;51.382;0.016;2022-09-09T07:51:06;21.50;;;8.73;;
31083;SDS011;36333;51.382;0.016;2022-09-09T07:53:47;17.95;;;8.75;;
31083;SDS011;36333;51.382;0.016;2022-09-09T07:56:22;19.67;;;7.95;;
31083;SDS011;36333;51.382;0.016;2022-09-09T07:58:51;20.60;;;9.48;;
31083;SDS011;36333;51.382;0.016;2022-09-09T08:01:36;21.95;;;9.40;;
31083;SDS011;36333;51.382;0.016;2022-09-09T08:04:08;21.10;;;8.25;;
31083;SDS011;36333;51.382;0.016;2022-09-09T08:06:44;19.13;;;8.07;;
31083;SDS011;36333;51.382;0.016;2022-09-09T08:09:25;23.60;;;9.35;;
31083;SDS011;36333;51.382;0.016;2022-09-09T08:12:22;26.53;;;9.40;;
31083;SDS011;36333;51.382;0.016;2022-09-09T08:14:50;25.10;;;9.35;;
31083;SDS011;36333;51.382;0.016;2022-09-09T08:17:21;23.48;;;10.00;;
31083;SDS011;36333;51.382;0.016;2022-09-09T08:19:55;18.13;;;8.65;;
31083;SDS011;36333;51.382;0.016;2022-09-09T08:22:26;17.20;;;8.45;;
31083;SDS011;36333;51.382;0.016;2022-09-09T08:24:55;18.63;;;9.25;;
31083;SDS011;36333;51.382;0.016;2022-09-09T08:29:53;18.65;;;8.00;;
31083;SDS011;36333;51.382;0.016;2022-09-09T08:32:21;15.23;;;7.03;;
31083;SDS011;36333;51.382;0.016;2022-09-09T08:34:49;16.42;;;7.28;;
31083;SDS011;36333;51.382;0.016;2022-09-09T08:37:22;16.52;;;7.20;;
31083;SDS011;36333;51.382;0.016;2022-09-09T08:39:50;17.35;;;7.45;;
31083;SDS011;36333;51.382;0.016;2022-09-09T08:42:23;20.73;;;7.45;;
31083;SDS011;36333;51.382;0.016;2022-09-09T08:48:10;14.95;;;6.30;;
31083;SDS011;36333;51.382;0.016;2022-09-09T08:51:11;13.68;;;6.50;;
31083;SDS011;36333;51.382;0.016;2022-09-09T08:53:42;13.02;;;6.30;;
31083;SDS011;36333;51.382;0.016;2022-09-09T08:56:16;15.65;;;6.15;;
31083;SDS011;36333;51.382;0.016;2022-09-09T08:58:52;12.88;;;6.47;;
31083;SDS011;36333;51.382;0.016;2022-09-09T09:12:07;16.55;;;6.13;;
31083;SDS011;36333;51.382;0.016;2022-09-09T09:14:48;15.20;;;6.20;;
31083;SDS011;36333;51.382;0.016;2022-09-09T09:17:21;17.83;;;6.85;;
31083;SDS011;36333;51.382;0.016;2022-09-09T09:19:53;11.93;;;7.10;;
31083;SDS011;36333;51.382;0.016;2022-09-09T09:22:22;12.35;;;6.15;;
31083;SDS011;36333;51.382;0.016;2022-09-09T09:25:08;16.75;;;7.32;;
31083;SDS011;36333;51.382;0.016;2022-09-09T09:27:54;12.88;;;7.22;;
31083;SDS011;36333;51.382;0.016;2022-09-09T09:30:42;13.73;;;7.82;;
31083;SDS011;36333;51.382;0.016;2022-09-09T09:36:00;12.68;;;7.53;;
31083;SDS011;36333;51.382;0.016;2022-09-09T09:38:29;14.05;;;7.80;;
31083;SDS011;36333;51.382;0.016;2022-09-09T09:41:20;13.07;;;7.45;;
31083;SDS011;36333;51.382;0.016;2022-09-09T09:44:22;19.77;;;8.43;;
31083;SDS011;36333;51.382;0.016;2022-09-09T09:47:08;15.05;;;9.02;;
31083;SDS011;36333;51.382;0.016;2022-09-09T09:49:55;15.52;;;9.05;;
31083;SDS011;36333;51.382;0.016;2022-09-09T09:52:30;15.50;;;8.98;;
31083;SDS011;36333;51.382;0.016;2022-09-09T09:55:02;16.85;;;9.70;;
31083;SDS011;36333;51.382;0.016;2022-09-09T09:57:34;16.08;;;9.93;;
31083;SDS011;36333;51.382;0.016;2022-09-09T10:03:12;20.92;;;11.20;;
31083;SDS011;36333;51.382;0.016;2022-09-09T10:05:52;16.45;;;11.48;;
31083;SDS011;36333;51.382;0.016;2022-09-09T10:08:22;21.42;;;12.00;;
31083;SDS011;36333;51.382;0.016;2022-09-09T10:17:11;20.52;;;12.10;;
31083;SDS011;36333;51.382;0.016;2022-09-09T10:19:34;19.52;;;11.57;;
31083;SDS011;36333;51.382;0.016;2022-09-09T10:33:52;21.08;;;13.02;;
31083;SDS011;36333;51.382;0.016;2022-09-09T10:36:28;25.33;;;13.23;;
31083;SDS011;36333;51.382;0.016;2022-09-09T10:56:25;24.13;;;11.48;;
31083;SDS011;36333;51.382;0.016;2022-09-09T10:59:12;20.00;;;11.73;;
31083;SDS011;36333;51.382;0.016;2022-09-09T11:05:17;19.83;;;11.23;;
31083;SDS011;36333;51.382;0.016;2022-09-09T11:20:25;20.15;;;11.80;;
31083;SDS011;36333;51.382;0.016;2022-09-09T11:23:03;20.15;;;12.40;;
31083;SDS011;36333;51.382;0.016;2022-09-09T11:25:40;18.30;;;11.00;;
31083;SDS011;36333;51.382;0.016;2022-09-09T11:40:28;9.07;;;5.18;;
31083;SDS011;36333;51.382;0.016;2022-09-09T11:44:16;8.63;;;5.07;;
31083;SDS011;36333;51.382;0.016;2022-09-09T11:47:02;12.55;;;4.25;;
31083;SDS011;36333;51.382;0.016;2022-09-09T11:49:42;9.48;;;4.32;;
31083;SDS011;36333;51.382;0.016;2022-09-09T11:52:11;10.40;;;4.60;;
31083;SDS011;36333;51.382;0.016;2022-09-09T11:54:48;11.50;;;5.35;;
31083;SDS011;36333;51.382;0.016;2022-09-09T11:57:23;12.30;;;5.00;;
31083;SDS011;36333;51.382;0.016;2022-09-09T11:59:52;9.57;;;5.32;;
31083;SDS011;36333;51.382;0.016;2022-09-09T12:02:27;7.82;;;4.88;;
31083;SDS011;36333;51.382;0.016;2022-09-09T12:05:07;14.25;;;5.38;;
31083;SDS011;36333;51.382;0.016;2022-09-09T12:07:46;9.77;;;4.80;;
31083;SDS011;36333;51.382;0.016;2022-09-09T12:10:19;7.57;;;4.60;;
31083;SDS011;36333;51.382;0.016;2022-09-09T12:15:47;7.80;;;3.92;;
31083;SDS011;36333;51.382;0.016;2022-09-09T12:18:36;10.70;;;3.95;;
31083;SDS011;36333;51.382;0.016;2022-09-09T12:24:10;12.18;;;4.05;;
31083;SDS011;36333;51.382;0.016;2022-09-09T12:27:08;11.00;;;3.53;;
31083;SDS011;36333;51.382;0.016;2022-09-09T12:32:17;10.40;;;3.55;;
31083;SDS011;36333;51.382;0.016;2022-09-09T12:38:05;6.80;;;3.63;;
31083;SDS011;36333;51.382;0.016;2022-09-09T12:40:42;10.93;;;3.95;;
31083;SDS011;36333;51.382;0.016;2022-09-09T12:44:12;6.95;;;3.75;;
31083;SDS011;36333;51.382;0.016;2022-09-09T12:47:10;9.93;;;3.88;;
31083;SDS011;36333;51.382;0.016;2022-09-09T12:49:52;9.02;;;3.65;;
31083;SDS011;36333;51.382;0.016;2022-09-09T12:53:10;9.77;;;3.67;;
31083;SDS011;36333;51.382;0.016;2022-09-09T12:56:47;8.83;;;3.63;;
31083;SDS011;36333;51.382;0.016;2022-09-09T12:59:38;7.40;;;4.22;;
31083;SDS011;36333;51.382;0.016;2022-09-09T13:07:07;10.20;;;3.70;;
31083;SDS011;36333;51.382;0.016;2022-09-09T13:09:46;8.73;;;3.30;;
31083;SDS011;36333;51.382;0.016;2022-09-09T13:12:45;10.65;;;3.60;;
31083;SDS011;36333;51.382;0.016;2022-09-09T13:15:29;8.63;;;3.95;;
31083;SDS011;36333;51.382;0.016;2022-09-09T13:18:06;10.63;;;3.58;;
31083;SDS011;36333;51.382;0.016;2022-09-09T13:20:45;8.50;;;3.60;;
31083;SDS011;36333;51.382;0.016;2022-09-09T13:23:47;9.55;;;3.90;;
31083;SDS011;36333;51.382;0.016;2022-09-09T13:27:29;6.35;;;3.28;;
31083;SDS011;36333;51.382;0.016;2022-09-09T13:33:20;7.00;;;3.17;;
31083;SDS011;36333;51.382;0.016;2022-09-09T13:36:14;7.07;;;3.17;;
31083;SDS011;36333;51.382;0.016;2022-09-09T13:38:53;6.85;;;3.67;;
31083;SDS011;36333;51.382;0.016;2022-09-09T13:41:34;6.95;;;3.47;;
31083;SDS011;36333;51.382;0.016;2022-09-09T13:44:25;9.30;;;3.45;;
31083;SDS011;36333;51.382;0.016;2022-09-09T13:51:41;10.02;;;3.50;;
31083;SDS011;36333;51.382;0.016;2022-09-09T13:54:25;7.85;;;3.35;;
31083;SDS011;36333;51.382;0.016;2022-09-09T14:01:02;8.48;;;3.92;;
31083;SDS011;36333;51.382;0.016;2022-09-09T14:03:58;9.57;;;4.03;;
31083;SDS011;36333;51.382;0.016;2022-09-09T14:14:50;8.73;;;3.72;;
31083;SDS011;36333;51.382;0.016;2022-09-09T14:17:31;8.27;;;3.75;;
31083;SDS011;36333;51.382;0.016;2022-09-09T14:32:54;5.20;;;2.75;;
31083;SDS011;36333;51.382;0.016;2022-09-09T14:35:57;5.63;;;2.58;;
31083;SDS011;36333;51.382;0.016;2022-09-09T14:46:52;5.07;;;2.20;;
31083;SDS011;36333;51.382;0.016;2022-09-09T14:50:35;7.38;;;2.72;;
31083;SDS011;36333;51.382;0.016;2022-09-09T15:02:58;9.05;;;2.50;;
31083;SDS011;36333;51.382;0.016;2022-09-09T15:07:16;6.13;;;2.30;;
31083;SDS011;36333;51.382;0.016;2022-09-09T15:29:51;7.68;;;2.05;;
31083;SDS011;36333;51.382;0.016;2022-09-09T15:32:18;5.18;;;2.10;;
31083;SDS011;36333;51.382;0.016;2022-09-09T15:34:46;7.25;;;1.90;;
31083;SDS011;36333;51.382;0.016;2022-09-09T15:37:14;3.88;;;1.75;;
31083;SDS011;36333;51.382;0.016;2022-09-09T15:39:42;8.82;;;1.90;;
31083;SDS011;36333;51.382;0.016;2022-09-09T15:42:43;6.75;;;1.88;;
31083;SDS011;36333;51.382;0.016;2022-09-09T15:52:05;7.70;;;1.92;;
31083;SDS011;36333;51.382;0.016;2022-09-09T15:55:28;6.50;;;1.70;;
31083;SDS011;36333;51.382;0.016;2022-09-09T15:59:44;7.45;;;2.20;;
31083;SDS011;36333;51.382;0.016;2022-09-09T16:02:29;6.40;;;2.42;;
31083;SDS011;36333;51.382;0.016;2022-09-09T16:05:09;8.68;;;2.58;;
31083;SDS011;36333;51.382;0.016;2022-09-09T16:07:49;10.63;;;2.63;;
31083;SDS011;36333;51.382;0.016;2022-09-09T16:10:33;8.68;;;2.85;;
31083;SDS011;36333;51.382;0.016;2022-09-09T16:13:15;7.70;;;2.60;;
31083;SDS011;36333;51.382;0.016;2022-09-09T16:15:43;10.48;;;2.47;;
31083;SDS011;36333;51.382;0.016;2022-09-09T16:18:17;58.75;;;6.75;;
31083;SDS011;36333;51.382;0.016;2022-09-09T16:23:20;46.25;;;5.07;;
31083;SDS011;36333;51.382;0.016;2022-09-09T16:25:54;16.77;;;3.63;;
31083;SDS011;36333;51.382;0.016;2022-09-09T16:28:22;12.48;;;3.78;;
31083;SDS011;36333;51.382;0.016;2022-09-09T16:30:50;11.38;;;3.17;;
31083;SDS011;36333;51.382;0.016;2022-09-09T16:33:17;8.55;;;3.55;;
31083;SDS011;36333;51.382;0.016;2022-09-09T16:35:45;9.73;;;3.70;;
31083;SDS011;36333;51.382;0.016;2022-09-09T16:38:13;7.85;;;3.53;;
31083;SDS011;36333;51.382;0.016;2022-09-09T16:40:41;8.65;;;4.00;;
31083;SDS011;36333;51.382;0.016;2022-09-09T16:43:09;10.68;;;4.95;;
31083;SDS011;36333;51.382;0.016;2022-09-09T16:45:42;10.52;;;5.00;;
31083;SDS011;36333;51.382;0.016;2022-09-09T16:48:11;9.50;;;5.78;;
31083;SDS011;36333;51.382;0.016;2022-09-09T16:50:39;10.25;;;5.20;;
31083;SDS011;36333;51.382;0.016;2022-09-09T16:53:07;9.32;;;5.35;;
31083;SDS011;36333;51.382;0.016;2022-09-09T16:55:39;11.35;;;5.50;;
31083;SDS011;36333;51.382;0.016;2022-09-09T16:58:12;12.93;;;6.78;;
31083;SDS011;36333;51.382;0.016;2022-09-09T17:00:39;17.35;;;7.57;;
31083;SDS011;36333;51.382;0.016;2022-09-09T17:03:11;18.08;;;8.35;;
31083;SDS011;36333;51.382;0.016;2022-09-09T17:05:41;15.93;;;7.03;;
31083;SDS011;36333;51.382;0.016;2022-09-09T17:08:11;19.40;;;8.52;;
31083;SDS011;36333;51.382;0.016;2022-09-09T17:10:41;10.93;;;6.97;;
31083;SDS011;36333;51.382;0.016;2022-09-09T17:13:09;17.58;;;9.18;;
31083;SDS011;36333;51.382;0.016;2022-09-09T17:15:40;16.48;;;9.35;;
31083;SDS011;36333;51.382;0.016;2022-09-09T17:18:10;16.35;;;9.25;;
31083;SDS011;36333;51.382;0.016;2022-09-09T17:20:39;12.95;;;6.50;;
31083;SDS011;36333;51.382;0.016;2022-09-09T17:23:13;15.13;;;8.10;;
31083;SDS011;36333;51.382;0.016;2022-09-09T17:25:42;18.08;;;8.45;;
31083;SDS011;36333;51.382;0.016;2022-09-09T17:28:12;21.30;;;9.13;;
31083;SDS011;36333;51.382;0.016;2022-09-09T17:30:40;20.40;;;9.25;;
31083;SDS011;36333;51.382;0.016;2022-09-09T17:33:07;17.75;;;9.90;;
31083;SDS011;36333;51.382;0.016;2022-09-09T17:35:35;26.50;;;13.15;;
31083;SDS011;36333;51.382;0.016;2022-09-09T17:38:02;20.35;;;10.13;;
31083;SDS011;36333;51.382;0.016;2022-09-09T17:40:30;18.42;;;11.00;;
31083;SDS011;36333;51.382;0.016;2022-09-09T17:42:57;29.85;;;14.05;;
31083;SDS011;36333;51.382;0.016;2022-09-09T17:45:25;33.58;;;14.93;;
31083;SDS011;36333;51.382;0.016;2022-09-09T17:47:57;22.83;;;12.85;;
31083;SDS011;36333;51.382;0.016;2022-09-09T17:50:24;26.73;;;14.98;;
31083;SDS011;36333;51.382;0.016;2022-09-09T17:52:52;40.20;;;18.35;;
31083;SDS011;36333;51.382;0.016;2022-09-09T17:55:20;39.65;;;18.52;;
31083;SDS011;36333;51.382;0.016;2022-09-09T17:57:48;39.05;;;18.00;;
31083;SDS011;36333;51.382;0.016;2022-09-09T18:00:15;36.83;;;16.73;;
31083;SDS011;36333;51.382;0.016;2022-09-09T18:02:43;47.00;;;20.38;;
31083;SDS011;36333;51.382;0.016;2022-09-09T18:07:39;49.22;;;19.85;;
31083;SDS011;36333;51.382;0.016;2022-09-09T18:10:07;27.17;;;15.20;;
31083;SDS011;36333;51.382;0.016;2022-09-09T18:12:34;21.65;;;11.98;;
31083;SDS011;36333;51.382;0.016;2022-09-09T18:15:02;43.03;;;19.55;;
31083;SDS011;36333;51.382;0.016;2022-09-09T18:17:33;31.50;;;16.15;;
31083;SDS011;36333;51.382;0.016;2022-09-09T18:20:04;31.95;;;14.88;;
31083;SDS011;36333;51.382;0.016;2022-09-09T18:22:33;28.45;;;14.48;;
31083;SDS011;36333;51.382;0.016;2022-09-09T18:25:01;28.75;;;14.95;;
31083;SDS011;36333;51.382;0.016;2022-09-09T18:27:28;27.13;;;13.00;;
31083;SDS011;36333;51.382;0.016;2022-09-09T18:29:56;22.83;;;11.70;;
31083;SDS011;36333;51.382;0.016;2022-09-09T18:32:25;22.50;;;12.52;;
31083;SDS011;36333;51.382;0.016;2022-09-09T18:34:56;26.98;;;12.88;;
31083;SDS011;36333;51.382;0.016;2022-09-09T18:37:25;28.42;;;12.55;;
31083;SDS011;36333;51.382;0.016;2022-09-09T18:39:52;29.52;;;13.70;;
31083;SDS011;36333;51.382;0.016;2022-09-09T18:42:20;30.13;;;13.13;;
31083;SDS011;36333;51.382;0.016;2022-09-09T18:44:47;28.13;;;13.45;;
31083;SDS011;36333;51.382;0.016;2022-09-09T18:47:15;25.00;;;12.77;;
31083;SDS011;36333;51.382;0.016;2022-09-09T18:49:43;29.20;;;14.23;;
31083;SDS011;36333;51.382;0.016;2022-09-09T18:52:13;28.05;;;14.93;;
31083;SDS011;36333;51.382;0.016;2022-09-09T18:54:41;24.20;;;12.40;;
31083;SDS011;36333;51.382;0.016;2022-09-09T18:57:11;24.30;;;12.35;;
31083;SDS011;36333;51.382;0.016;2022-09-09T18:59:39;27.85;;;13.68;;
31083;SDS011;36333;51.382;0.016;2022-09-09T19:02:08;27.33;;;13.95;;
31083;SDS011;36333;51.382;0.016;2022-09-09T19:04:38;26.95;;;13.02;;
31083;SDS011;36333;51.382;0.016;2022-09-09T19:07:05;29.48;;;14.07;;
31083;SDS011;36333;51.382;0.016;2022-09-09T19:09:33;28.90;;;14.68;;
31083;SDS011;36333;51.382;0.016;2022-09-09T19:12:02;31.08;;;15.63;;
31083;SDS011;36333;51.382;0.016;2022-09-09T19:14:30;32.00;;;17.38;;
31083;SDS011;36333;51.382;0.016;2022-09-09T19:16:57;31.52;;;18.15;;
31083;SDS011;36333;51.382;0.016;2022-09-09T19:19:26;35.97;;;19.40;;